Time;durP1;ratioP1;P1;durP2;ratioP2;P2;SDS_P1;SDS_P2;PMS_P1;PMS_P2;Temp;Humidity;BMP_temperature;BMP_pressure;BME280_temperature;BME280_humidity;BME280_pressure;Samples;Min_cycle;Max_cycle;Signal;HPM_P1;HPM_P2
2023/05/18 00:00:44;;;;;;;12.60;2.63;;;7.80;99.90;;;;;;5013722;28;20504;-84
2023/05/18 00:03:10;;;;;;;5.22;2.05;;;7.30;99.90;;;;;;5019713;28;20545;-83
2023/05/18 00:05:36;;;;;;;8.73;2.30;;;7.50;99.90;;;;;;5015935;28;20079;-84
2023/05/18 00:08:02;;;;;;;6.72;2.25;;;7.00;99.90;;;;;;5011094;28;20107;-84
2023/05/18 00:10:28;;;;;;;9.43;2.83;;;7.00;99.90;;;;;;5030000;28;20037;-84
2023/05/18 00:12:54;;;;;;;9.38;2.30;;;6.90;99.90;;;;;;5007271;28;20037;-84
2023/05/18 00:15:20;;;;;;;5.47;2.55;;;6.90;99.90;;;;;;5023409;28;20382;-84
2023/05/18 00:17:45;;;;;;;8.05;2.33;;;6.90;99.90;;;;;;5007679;28;20038;-84
2023/05/18 00:20:11;;;;;;;10.82;2.00;;;7.20;99.90;;;;;;4999763;28;20123;-84
2023/05/18 00:22:41;;;;;;;11.60;2.80;;;6.80;99.90;;;;;;5033249;28;20041;-84
2023/05/18 00:25:07;;;;;;;7.43;2.33;;;6.80;99.90;;;;;;5017815;28;20040;-85
2023/05/18 00:27:33;;;;;;;8.13;2.10;;;6.70;99.90;;;;;;5004317;28;20037;-84
2023/05/18 00:29:59;;;;;;;6.20;2.50;;;6.70;99.90;;;;;;5000760;28;20110;-85
2023/05/18 00:32:25;;;;;;;8.68;2.30;;;6.70;99.90;;;;;;5025977;28;20041;-85
2023/05/18 00:34:50;;;;;;;9.77;2.30;;;6.70;99.90;;;;;;5008237;28;20037;-85
2023/05/18 00:37:16;;;;;;;6.65;2.22;;;6.60;99.90;;;;;;5014355;28;20464;-84
2023/05/18 00:39:42;;;;;;;8.90;2.33;;;6.70;99.90;;;;;;4995728;28;20075;-84
2023/05/18 00:42:07;;;;;;;5.35;2.33;;;6.60;99.90;;;;;;5012473;28;20037;-85
2023/05/18 00:44:33;;;;;;;8.88;2.50;;;6.60;99.90;;;;;;5016950;28;20048;-84
2023/05/18 00:46:59;;;;;;;6.88;2.10;;;6.50;99.90;;;;;;5016277;28;20127;-84
2023/05/18 00:49:26;;;;;;;6.85;1.98;;;6.50;99.90;;;;;;4998379;28;20037;-84
2023/05/18 00:51:53;;;;;;;9.15;2.25;;;6.50;99.90;;;;;;5005398;28;20068;-85
2023/05/18 00:54:19;;;;;;;9.65;2.50;;;6.60;99.90;;;;;;4985327;28;20065;-84
2023/05/18 00:56:47;;;;;;;7.18;2.13;;;6.40;99.90;;;;;;4999730;28;20080;-84
2023/05/18 00:59:14;;;;;;;15.25;2.65;;;6.40;99.90;;;;;;5031493;28;20099;-85
2023/05/18 01:01:44;;;;;;;5.85;2.00;;;6.40;99.90;;;;;;4993841;28;20069;-85
2023/05/18 01:04:13;;;;;;;8.45;2.10;;;6.40;99.90;;;;;;5015756;28;20120;-83
2023/05/18 01:06:40;;;;;;;12.23;2.90;;;6.30;99.90;;;;;;5026084;28;20050;-84
2023/05/18 01:09:09;;;;;;;10.18;2.40;;;6.30;99.90;;;;;;5017515;28;20045;-85
2023/05/18 01:11:38;;;;;;;11.43;2.45;;;6.20;99.90;;;;;;5034990;28;20044;-85
2023/05/18 01:14:22;;;;;;;10.38;2.55;;;6.20;99.90;;;;;;5012674;28;20035;-84
2023/05/18 01:17:01;;;;;;;12.00;2.90;;;6.20;99.90;;;;;;5015111;28;20460;-83
2023/05/18 01:19:41;;;;;;;6.63;2.65;;;6.20;99.90;;;;;;5016419;28;20045;-84
2023/05/18 01:22:45;;;;;;;11.75;2.30;;;6.10;99.90;;;;;;5018493;28;20037;-84
2023/05/18 01:25:32;;;;;;;11.75;2.70;;;6.10;99.90;;;;;;5005982;28;20041;-84
2023/05/18 01:28:07;;;;;;;8.35;2.88;;;6.10;99.90;;;;;;5009037;28;20063;-84
2023/05/18 01:30:38;;;;;;;11.03;2.70;;;6.00;99.90;;;;;;4996226;28;20781;-84
2023/05/18 01:33:08;;;;;;;10.40;2.65;;;6.00;99.90;;;;;;5016812;28;20048;-83
2023/05/18 01:35:35;;;;;;;11.38;3.17;;;6.00;99.90;;;;;;5016585;28;20084;-84
2023/05/18 01:38:02;;;;;;;7.50;2.42;;;6.00;99.90;;;;;;5035419;28;20048;-84
2023/05/18 01:40:32;;;;;;;6.65;2.25;;;6.00;99.90;;;;;;5034929;28;20076;-84
2023/05/18 01:43:07;;;;;;;12.52;2.72;;;6.00;99.90;;;;;;5009735;28;20174;-84
2023/05/18 01:45:36;;;;;;;7.88;2.38;;;5.90;99.90;;;;;;5018372;28;20044;-84
2023/05/18 01:48:02;;;;;;;8.25;2.47;;;5.90;99.90;;;;;;4999418;28;20053;-84
2023/05/18 01:50:38;;;;;;;9.75;2.38;;;5.90;99.90;;;;;;4966842;28;20081;-84
2023/05/18 01:53:22;;;;;;;10.23;2.78;;;5.90;99.90;;;;;;5000004;28;20037;-84
2023/05/18 01:55:51;;;;;;;8.25;2.65;;;5.90;99.90;;;;;;5021457;28;20040;-86
2023/05/18 01:58:17;;;;;;;7.25;2.67;;;5.80;99.90;;;;;;5037768;28;20044;-84
2023/05/18 02:00:45;;;;;;;6.82;2.70;;;5.90;99.90;;;;;;5013232;28;20048;-85
2023/05/18 02:03:14;;;;;;;7.60;2.92;;;6.00;99.90;;;;;;5035500;28;20041;-84
2023/05/18 02:05:40;;;;;;;12.32;2.72;;;5.90;99.90;;;;;;5000653;28;20108;-84
2023/05/18 02:08:05;;;;;;;7.90;2.70;;;5.70;99.90;;;;;;5001284;28;20431;-84
2023/05/18 02:10:31;;;;;;;6.93;2.80;;;6.00;99.90;;;;;;5016626;28;20124;-85
2023/05/18 02:12:57;;;;;;;6.47;2.47;;;5.70;99.90;;;;;;4978224;28;20492;-83
2023/05/18 02:15:22;;;;;;;9.23;3.47;;;5.70;99.90;;;;;;4974635;28;20068;-84
2023/05/18 02:17:48;;;;;;;9.27;3.17;;;5.70;99.90;;;;;;4973652;28;20819;-83
2023/05/18 02:20:17;;;;;;;10.40;2.92;;;5.60;99.90;;;;;;4989735;28;20083;-83
2023/05/18 02:22:43;;;;;;;9.50;2.72;;;5.50;99.90;;;;;;5010769;28;20045;-84
2023/05/18 02:25:09;;;;;;;7.50;2.88;;;6.70;99.90;;;;;;5022052;28;20416;-84
2023/05/18 02:27:35;;;;;;;7.50;3.00;;;5.50;99.90;;;;;;5001104;28;20033;-84
2023/05/18 02:30:04;;;;;;;7.00;3.30;;;5.50;99.90;;;;;;5000946;28;20040;-85
2023/05/18 02:32:31;;;;;;;11.25;2.80;;;5.50;99.90;;;;;;4991971;28;20032;-84
2023/05/18 02:35:01;;;;;;;6.40;2.78;;;5.40;99.90;;;;;;5009888;28;20123;-84
2023/05/18 02:37:27;;;;;;;11.48;3.20;;;5.30;99.90;;;;;;5016078;28;20037;-84
2023/05/18 02:39:53;;;;;;;10.15;3.00;;;5.30;99.90;;;;;;5035870;28;20449;-85
2023/05/18 02:42:18;;;;;;;9.65;3.33;;;5.30;99.90;;;;;;5035954;28;20119;-85
2023/05/18 02:44:44;;;;;;;8.00;3.50;;;5.40;99.90;;;;;;5018822;28;20562;-84
2023/05/18 02:47:10;;;;;;;9.45;3.55;;;5.40;99.90;;;;;;5003701;28;20051;-84
2023/05/18 02:49:35;;;;;;;7.90;3.17;;;5.20;99.90;;;;;;5002898;28;20072;-84
2023/05/18 02:52:01;;;;;;;5.95;3.25;;;5.70;99.90;;;;;;5003656;28;20033;-83
2023/05/18 02:54:27;;;;;;;6.47;2.80;;;5.30;99.90;;;;;;5011460;28;20549;-84
2023/05/18 02:56:55;;;;;;;9.02;3.38;;;5.20;99.90;;;;;;4984162;28;20029;-84
2023/05/18 02:59:21;;;;;;;9.18;3.35;;;5.10;99.90;;;;;;5017338;28;20690;-85
2023/05/18 03:01:47;;;;;;;9.80;3.08;;;5.10;99.90;;;;;;5002317;28;20120;-84
2023/05/18 03:04:12;;;;;;;7.63;2.90;;;5.10;99.90;;;;;;5001990;28;20072;-84
2023/05/18 03:06:39;;;;;;;11.18;3.22;;;5.00;99.90;;;;;;5021397;28;20051;-84
2023/05/18 03:09:04;;;;;;;8.93;3.25;;;5.00;99.90;;;;;;5003147;28;20063;-84
2023/05/18 03:11:30;;;;;;;6.72;3.00;;;5.00;99.90;;;;;;5011936;28;20116;-83
2023/05/18 03:13:56;;;;;;;7.90;2.88;;;5.60;99.90;;;;;;5011576;28;20065;-84
2023/05/18 03:16:27;;;;;;;7.93;3.30;;;4.90;99.90;;;;;;5025928;28;20044;-84
2023/05/18 03:18:53;;;;;;;6.00;3.30;;;4.90;99.90;;;;;;5030206;28;20041;-84
2023/05/18 03:21:20;;;;;;;7.82;3.20;;;4.90;99.90;;;;;;4986781;28;20034;-84
2023/05/18 03:23:46;;;;;;;12.02;3.00;;;4.90;99.90;;;;;;4985041;28;20045;-83
2023/05/18 03:26:12;;;;;;;8.18;3.40;;;5.20;99.90;;;;;;5001025;28;20049;-84
2023/05/18 03:28:38;;;;;;;9.82;3.25;;;4.90;99.90;;;;;;4989880;28;20049;-84
2023/05/18 03:31:04;;;;;;;8.93;3.80;;;5.30;99.90;;;;;;5019646;28;20052;-85
2023/05/18 03:33:30;;;;;;;6.60;3.10;;;4.90;99.90;;;;;;5020751;28;20121;-83
2023/05/18 03:35:56;;;;;;;5.15;3.03;;;4.90;99.90;;;;;;4989106;28;20167;-84
2023/05/18 03:38:21;;;;;;;6.43;2.88;;;4.90;99.90;;;;;;5013207;28;20041;-84
2023/05/18 03:40:47;;;;;;;8.52;3.10;;;4.90;99.90;;;;;;5000972;28;20033;-83
2023/05/18 03:43:13;;;;;;;8.77;3.20;;;5.00;99.90;;;;;;5023768;28;20043;-83
2023/05/18 03:45:39;;;;;;;9.70;3.20;;;5.00;99.90;;;;;;5007833;28;20048;-83
2023/05/18 03:48:05;;;;;;;11.25;3.30;;;5.00;99.90;;;;;;4998001;28;20091;-85
2023/05/18 03:50:31;;;;;;;9.88;3.75;;;5.00;99.90;;;;;;5012432;28;20036;-84
2023/05/18 03:52:57;;;;;;;4.90;2.83;;;5.00;99.90;;;;;;5018874;28;20581;-84
2023/05/18 03:55:22;;;;;;;11.90;3.33;;;5.00;99.90;;;;;;5019003;28;20041;-83
2023/05/18 03:57:48;;;;;;;8.75;2.80;;;5.00;99.90;;;;;;5034354;28;20037;-83
2023/05/18 04:00:14;;;;;;;9.77;2.92;;;5.00;99.90;;;;;;5014161;28;20045;-84
2023/05/18 04:02:41;;;;;;;6.72;2.90;;;5.00;99.90;;;;;;5021261;28;20041;-84
2023/05/18 04:05:07;;;;;;;11.43;3.15;;;5.10;99.90;;;;;;4983774;28;20132;-84
2023/05/18 04:07:32;;;;;;;6.35;3.47;;;5.10;99.90;;;;;;5033948;28;20037;-84
2023/05/18 04:09:58;;;;;;;9.30;3.05;;;5.10;99.90;;;;;;5002017;28;20044;-84
2023/05/18 04:12:24;;;;;;;9.02;3.40;;;5.20;99.90;;;;;;5002406;28;20045;-84
2023/05/18 04:14:50;;;;;;;8.82;3.30;;;5.10;99.90;;;;;;5017956;28;20088;-84
2023/05/18 04:17:21;;;;;;;9.13;3.30;;;5.20;99.90;;;;;;5007819;28;20040;-85
2023/05/18 04:19:47;;;;;;;6.57;3.35;;;5.70;99.90;;;;;;5034262;28;20063;-84
2023/05/18 04:22:13;;;;;;;6.93;3.58;;;5.30;99.90;;;;;;5001827;28;20113;-84
2023/05/18 04:24:44;;;;;;;6.88;3.33;;;5.40;99.90;;;;;;5018522;28;20396;-84
2023/05/18 04:27:11;;;;;;;11.35;3.60;;;5.30;99.90;;;;;;5043584;28;20052;-85
2023/05/18 04:29:37;;;;;;;11.55;3.55;;;5.30;99.90;;;;;;5001699;28;20053;-85
2023/05/18 04:32:07;;;;;;;13.48;3.80;;;5.40;99.90;;;;;;5005493;28;20037;-84
2023/05/18 04:34:37;;;;;;;11.68;3.83;;;5.40;99.90;;;;;;5002212;28;20054;-84
2023/05/18 04:37:06;;;;;;;8.98;3.50;;;5.40;99.90;;;;;;5009434;28;20033;-84
2023/05/18 04:39:33;;;;;;;13.38;3.42;;;5.40;99.90;;;;;;5014718;28;20465;-84
2023/05/18 04:41:59;;;;;;;9.75;4.22;;;5.50;99.90;;;;;;5012933;28;20033;-84
2023/05/18 04:44:30;;;;;;;6.28;3.30;;;5.50;99.90;;;;;;5002618;28;20045;-86
2023/05/18 04:46:56;;;;;;;13.73;3.95;;;6.60;99.90;;;;;;4987017;28;20489;-83
2023/05/18 04:49:22;;;;;;;11.70;3.70;;;5.60;99.90;;;;;;5025626;28;20049;-84
2023/05/18 04:51:55;;;;;;;9.82;3.22;;;5.80;99.90;;;;;;5031028;28;20088;-85
2023/05/18 04:54:23;;;;;;;10.88;3.58;;;5.70;99.90;;;;;;5030200;28;20047;-84
2023/05/18 04:56:49;;;;;;;11.07;3.65;;;5.70;99.90;;;;;;4993213;28;20120;-85
2023/05/18 04:59:15;;;;;;;7.57;3.38;;;5.80;99.90;;;;;;5000408;28;20049;-84
2023/05/18 05:01:41;;;;;;;8.73;3.70;;;5.80;99.90;;;;;;4983185;28;20076;-83
2023/05/18 05:04:06;;;;;;;11.68;3.80;;;5.80;99.90;;;;;;5015268;28;20045;-84
2023/05/18 05:06:32;;;;;;;10.63;3.70;;;5.90;99.90;;;;;;5000133;28;20096;-84
2023/05/18 05:08:58;;;;;;;10.60;3.60;;;5.90;99.90;;;;;;4991918;28;20512;-85
2023/05/18 05:11:23;;;;;;;5.75;3.40;;;5.90;99.90;;;;;;5022047;28;20037;-84
2023/05/18 05:13:49;;;;;;;9.88;3.92;;;5.90;99.90;;;;;;4999050;28;20033;-84
2023/05/18 05:16:15;;;;;;;9.15;3.47;;;6.00;99.90;;;;;;5012195;28;20382;-84
2023/05/18 05:18:41;;;;;;;16.17;4.32;;;6.00;99.90;;;;;;5012004;28;20091;-84
2023/05/18 05:21:08;;;;;;;9.13;3.53;;;6.10;99.90;;;;;;5013321;28;20069;-84
2023/05/18 05:23:34;;;;;;;8.48;3.40;;;6.10;99.90;;;;;;5017608;28;20033;-84
2023/05/18 05:26:00;;;;;;;8.85;3.40;;;6.20;99.90;;;;;;5002138;28;20111;-84
2023/05/18 05:28:25;;;;;;;8.82;3.78;;;6.20;99.90;;;;;;5015307;28;20056;-83
2023/05/18 05:30:51;;;;;;;9.20;3.40;;;6.30;99.90;;;;;;4984566;28;20041;-83
2023/05/18 05:33:17;;;;;;;11.23;3.38;;;6.30;99.90;;;;;;5019488;28;20036;-83
2023/05/18 05:35:43;;;;;;;7.55;3.13;;;6.40;99.90;;;;;;5030217;28;20041;-83
2023/05/18 05:38:09;;;;;;;7.50;3.40;;;6.40;99.90;;;;;;4989102;28;20090;-83
2023/05/18 05:40:35;;;;;;;7.03;3.40;;;6.50;99.90;;;;;;5026554;28;20071;-82
2023/05/18 05:43:00;;;;;;;10.32;2.88;;;6.60;99.90;;;;;;5019726;28;20056;-83
2023/05/18 05:45:29;;;;;;;8.65;3.45;;;6.60;99.90;;;;;;5012890;28;20045;-82
2023/05/18 05:47:54;;;;;;;12.40;3.85;;;6.70;99.90;;;;;;4985920;28;20041;-82
2023/05/18 05:50:20;;;;;;;10.68;3.00;;;6.70;99.90;;;;;;5027497;28;20041;-82
2023/05/18 05:52:46;;;;;;;8.35;3.33;;;7.00;99.90;;;;;;5005256;28;20039;-81
2023/05/18 05:55:12;;;;;;;5.85;2.78;;;6.80;99.90;;;;;;5010990;28;20130;-82
2023/05/18 05:57:41;;;;;;;6.82;2.75;;;6.90;99.90;;;;;;4993902;28;20485;-83
2023/05/18 06:00:09;;;;;;;8.00;3.33;;;7.00;99.90;;;;;;5001075;28;20049;-81
2023/05/18 06:02:36;;;;;;;9.93;3.25;;;7.10;99.90;;;;;;5011010;28;20055;-80
2023/05/18 06:05:01;;;;;;;6.43;2.70;;;7.20;99.90;;;;;;5002823;28;20052;-82
2023/05/18 06:07:27;;;;;;;11.13;3.15;;;7.30;99.90;;;;;;5018989;28;20033;-82
2023/05/18 06:09:53;;;;;;;11.25;3.10;;;7.40;99.90;;;;;;5004363;28;20044;-84
2023/05/18 06:12:18;;;;;;;9.00;3.08;;;7.40;99.90;;;;;;5018795;28;20041;-84
2023/05/18 06:14:44;;;;;;;11.55;2.95;;;7.60;99.90;;;;;;4989125;28;20042;-87
2023/05/18 06:17:10;;;;;;;9.25;3.30;;;7.70;99.90;;;;;;5021211;28;20032;-86
2023/05/18 06:19:35;;;;;;;7.97;2.72;;;7.80;99.90;;;;;;5015471;28;20400;-85
2023/05/18 06:22:01;;;;;;;12.10;3.30;;;7.90;99.90;;;;;;4986870;28;20055;-84
2023/05/18 06:24:27;;;;;;;8.93;2.80;;;8.10;99.90;;;;;;4996181;28;20056;-85
2023/05/18 06:26:53;;;;;;;11.52;3.08;;;8.20;99.90;;;;;;4981496;28;20469;-85
2023/05/18 06:29:20;;;;;;;6.72;2.60;;;8.30;99.90;;;;;;5030026;28;20077;-84
2023/05/18 06:31:46;;;;;;;12.52;3.28;;;8.40;99.90;;;;;;4978481;28;20110;-85
2023/05/18 06:34:11;;;;;;;9.95;3.03;;;8.40;99.90;;;;;;5004396;28;20144;-86
2023/05/18 06:36:37;;;;;;;10.60;3.47;;;8.50;99.90;;;;;;5001698;28;20045;-85
2023/05/18 06:39:04;;;;;;;6.13;2.50;;;8.60;99.90;;;;;;5006086;28;20045;-86
2023/05/18 06:41:30;;;;;;;9.30;2.83;;;8.70;99.90;;;;;;4985617;28;20048;-85
2023/05/18 06:43:59;;;;;;;7.88;2.33;;;8.80;99.90;;;;;;4993150;28;20037;-85
2023/05/18 06:46:25;;;;;;;8.93;2.72;;;8.90;99.90;;;;;;5015279;28;20132;-85
2023/05/18 06:48:51;;;;;;;7.68;2.35;;;9.00;99.90;;;;;;5017612;28;20037;-86
2023/05/18 06:51:17;;;;;;;10.20;2.92;;;9.20;99.90;;;;;;5018753;28;20033;-84
2023/05/18 06:53:43;;;;;;;6.32;2.45;;;9.20;99.90;;;;;;5018164;28;20033;-85
2023/05/18 06:56:12;;;;;;;9.52;2.35;;;9.30;99.90;;;;;;5024427;28;20045;-84
2023/05/18 06:58:38;;;;;;;6.38;2.33;;;9.40;99.90;;;;;;5036483;28;20041;-85
2023/05/18 07:01:04;;;;;;;9.68;2.42;;;9.50;99.90;;;;;;4990294;28;20410;-85
2023/05/18 07:03:31;;;;;;;10.80;2.90;;;9.60;99.90;;;;;;4995457;28;20044;-85
2023/05/18 07:05:58;;;;;;;10.02;2.40;;;9.70;99.90;;;;;;4999499;28;20462;-84
2023/05/18 07:08:24;;;;;;;12.82;2.30;;;9.70;99.90;;;;;;5029910;28;20044;-83
2023/05/18 07:10:50;;;;;;;7.35;2.00;;;9.80;99.90;;;;;;5031146;28;20175;-84
2023/05/18 07:13:17;;;;;;;7.70;1.95;;;9.80;99.90;;;;;;5018998;28;20512;-83
2023/05/18 07:15:43;;;;;;;9.18;2.55;;;9.90;99.90;;;;;;5020643;28;20074;-83
2023/05/18 07:18:09;;;;;;;9.82;3.00;;;9.90;99.90;;;;;;5003728;28;20076;-82
2023/05/18 07:20:35;;;;;;;11.40;2.35;;;10.00;99.90;;;;;;5037401;28;20044;-82
2023/05/18 07:23:00;;;;;;;4.75;1.90;;;10.00;99.90;;;;;;5017938;28;20049;-83
2023/05/18 07:25:26;;;;;;;5.30;2.60;;;10.10;99.90;;;;;;5009512;28;20366;-83
2023/05/18 07:27:53;;;;;;;7.75;2.10;;;10.10;99.90;;;;;;5006800;28;20508;-83
2023/05/18 07:30:20;;;;;;;6.75;2.15;;;10.10;99.90;;;;;;5017179;28;20524;-83
2023/05/18 07:32:46;;;;;;;9.00;2.40;;;10.10;99.90;;;;;;5001035;28;20037;-84
2023/05/18 07:35:12;;;;;;;5.60;2.00;;;10.20;99.90;;;;;;4991790;28;20123;-83
2023/05/18 07:37:38;;;;;;;8.18;2.42;;;10.20;99.90;;;;;;5017839;28;20098;-83
2023/05/18 07:40:04;;;;;;;7.72;1.92;;;10.30;99.90;;;;;;4992463;28;20497;-82
2023/05/18 07:42:32;;;;;;;11.95;2.47;;;10.40;99.90;;;;;;5019001;28;20099;-82
2023/05/18 07:44:58;;;;;;;11.20;2.35;;;10.30;99.90;;;;;;5003062;28;20119;-83
2023/05/18 07:47:24;;;;;;;7.72;2.58;;;10.30;99.90;;;;;;5002554;28;20124;-83
2023/05/18 07:49:50;;;;;;;8.85;2.20;;;10.20;99.90;;;;;;5017566;28;20041;-83
2023/05/18 07:52:16;;;;;;;8.27;2.75;;;10.20;99.90;;;;;;4991092;28;20047;-83
2023/05/18 07:54:42;;;;;;;6.13;2.15;;;10.30;99.90;;;;;;4999448;28;20043;-83
2023/05/18 07:57:08;;;;;;;9.65;1.83;;;10.30;99.90;;;;;;5031130;28;20399;-83
2023/05/18 07:59:33;;;;;;;9.40;2.33;;;10.30;99.90;;;;;;5012513;28;20051;-83
2023/05/18 08:02:00;;;;;;;8.52;2.17;;;10.40;99.90;;;;;;4988248;28;20473;-83
2023/05/18 08:04:27;;;;;;;7.10;2.03;;;10.40;99.90;;;;;;4989003;28;20078;-84
2023/05/18 08:06:54;;;;;;;7.05;2.03;;;10.40;99.90;;;;;;5000099;28;20793;-84
2023/05/18 08:09:23;;;;;;;12.40;2.28;;;10.50;99.90;;;;;;4977806;28;20107;-84
2023/05/18 08:11:49;;;;;;;8.75;2.10;;;10.50;99.90;;;;;;4996208;28;20044;-83
2023/05/18 08:14:15;;;;;;;10.45;2.67;;;10.50;99.90;;;;;;5034885;28;20094;-84
2023/05/18 08:16:41;;;;;;;11.48;2.50;;;10.60;99.90;;;;;;5019468;28;20116;-83
2023/05/18 08:19:07;;;;;;;8.02;2.35;;;10.60;99.90;;;;;;4984044;28;20045;-83
2023/05/18 08:21:33;;;;;;;7.30;2.47;;;10.60;99.90;;;;;;5005227;28;20041;-82
2023/05/18 08:23:59;;;;;;;9.32;2.35;;;10.60;99.90;;;;;;4999499;28;20090;-82
2023/05/18 08:26:25;;;;;;;5.53;1.73;;;10.70;99.90;;;;;;5017168;28;20037;-83
2023/05/18 08:28:51;;;;;;;10.75;2.55;;;10.70;99.90;;;;;;5018230;28;20473;-84
2023/05/18 08:31:17;;;;;;;10.02;2.50;;;10.80;99.90;;;;;;5000872;28;20044;-85
2023/05/18 08:33:44;;;;;;;6.63;2.47;;;10.90;99.90;;;;;;5002593;28;20107;-85
2023/05/18 08:36:10;;;;;;;8.25;2.70;;;10.90;99.90;;;;;;5000372;28;20124;-87
2023/05/18 08:38:36;;;;;;;8.48;2.35;;;11.00;99.90;;;;;;5017918;28;20511;-89
2023/05/18 08:41:13;;;;;;;7.95;2.55;;;11.00;99.90;;;;;;5013851;28;20041;-86
2023/05/18 08:43:44;;;;;;;9.52;2.45;;;11.10;99.90;;;;;;5009979;28;20047;-84
2023/05/18 08:46:18;;;;;;;9.77;2.10;;;11.10;99.90;;;;;;5028677;28;20049;-84
2023/05/18 08:48:47;;;;;;;10.65;2.47;;;11.20;99.90;;;;;;5017687;28;20049;-83
2023/05/18 08:51:19;;;;;;;11.13;2.45;;;11.30;99.90;;;;;;5016622;28;20058;-83
2023/05/18 08:53:53;;;;;;;7.63;2.10;;;11.50;99.90;;;;;;5034611;28;20041;-84
2023/05/18 08:56:22;;;;;;;5.35;2.00;;;11.60;99.90;;;;;;5018187;28;20095;-84
2023/05/18 08:58:51;;;;;;;7.75;2.33;;;11.70;99.90;;;;;;5033326;28;20071;-82
2023/05/18 09:01:17;;;;;;;8.85;3.00;;;11.70;99.90;;;;;;5042239;28;20105;-83
2023/05/18 09:03:45;;;;;;;11.65;2.60;;;11.80;99.90;;;;;;5038366;28;20045;-82
2023/05/18 09:06:11;;;;;;;8.68;2.53;;;11.90;99.90;;;;;;5022941;28;20170;-84
2023/05/18 09:08:37;;;;;;;9.00;2.22;;;11.80;99.90;;;;;;5022147;28;20041;-83
2023/05/18 09:11:05;;;;;;;9.55;2.20;;;11.80;99.90;;;;;;5005466;28;20116;-83
2023/05/18 09:13:31;;;;;;;7.68;2.30;;;11.80;99.90;;;;;;5022325;28;20366;-83
2023/05/18 09:15:56;;;;;;;7.25;2.40;;;11.80;99.90;;;;;;5021183;28;20043;-84
2023/05/18 09:18:22;;;;;;;5.85;2.03;;;11.80;99.90;;;;;;5021360;28;20037;-83
2023/05/18 09:20:48;;;;;;;5.35;2.28;;;11.80;99.90;;;;;;5001690;28;20124;-82
2023/05/18 09:23:16;;;;;;;8.18;2.33;;;11.90;99.90;;;;;;4999628;28;20041;-83
2023/05/18 09:25:44;;;;;;;10.95;2.20;;;11.90;99.90;;;;;;5001565;28;20497;-82
2023/05/18 09:28:13;;;;;;;5.95;2.20;;;12.00;99.90;;;;;;5021884;28;20041;-83
2023/05/18 09:30:42;;;;;;;6.25;2.03;;;12.10;99.90;;;;;;5016609;28;20386;-83
2023/05/18 09:33:20;;;;;;;9.23;2.60;;;12.20;99.90;;;;;;5002338;28;20108;-82
2023/05/18 09:35:46;;;;;;;8.52;2.50;;;12.30;99.90;;;;;;5032575;28;20037;-84
2023/05/18 09:38:16;;;;;;;8.73;2.58;;;12.30;99.90;;;;;;4986292;28;20041;-84
2023/05/18 09:40:45;;;;;;;6.38;2.08;;;12.30;99.90;;;;;;5022423;28;20045;-84
2023/05/18 09:43:11;;;;;;;9.32;2.30;;;12.30;99.90;;;;;;4988996;28;20041;-85
2023/05/18 09:45:45;;;;;;;4.60;2.08;;;12.40;99.90;;;;;;5019787;28;20697;-84
2023/05/18 09:48:12;;;;;;;7.60;2.60;;;12.40;99.90;;;;;;5003843;28;20045;-85
2023/05/18 09:50:37;;;;;;;7.00;2.47;;;12.50;99.90;;;;;;5019620;28;20040;-84
2023/05/18 09:53:08;;;;;;;10.70;2.10;;;12.60;99.90;;;;;;5004610;28;20037;-84
2023/05/18 09:55:52;;;;;;;5.75;2.30;;;12.70;99.90;;;;;;5017942;28;20043;-85
2023/05/18 09:58:17;;;;;;;7.07;2.33;;;12.80;99.90;;;;;;5002150;28;20033;-84
2023/05/18 10:00:50;;;;;;;7.10;2.42;;;12.90;99.90;;;;;;5003475;28;20043;-84
2023/05/18 10:03:23;;;;;;;12.65;2.30;;;13.00;99.90;;;;;;5005812;28;20037;-86
2023/05/18 10:05:50;;;;;;;10.05;2.30;;;13.00;99.90;;;;;;5039317;28;20433;-84
2023/05/18 10:08:16;;;;;;;6.10;2.30;;;13.10;99.90;;;;;;5005624;28;20056;-85
2023/05/18 10:10:48;;;;;;;8.77;2.22;;;13.20;99.90;;;;;;5019549;28;20041;-85
2023/05/18 10:13:19;;;;;;;7.82;2.20;;;13.30;99.90;;;;;;5017039;28;20037;-86
2023/05/18 10:15:54;;;;;;;8.68;2.42;;;13.30;99.90;;;;;;5015336;28;20041;-86
2023/05/18 10:18:28;;;;;;;8.43;2.10;;;13.40;99.40;;;;;;5019767;28;20025;-85
2023/05/18 10:21:00;;;;;;;4.78;1.90;;;13.30;99.30;;;;;;5016361;28;20484;-85
2023/05/18 10:23:30;;;;;;;7.05;2.15;;;13.30;99.50;;;;;;5033667;28;20071;-85
2023/05/18 10:25:56;;;;;;;6.72;2.13;;;13.40;99.30;;;;;;5018781;28;20044;-85
2023/05/18 10:28:27;;;;;;;4.70;2.00;;;13.40;98.40;;;;;;5002226;28;20051;-85
2023/05/18 10:30:57;;;;;;;12.40;2.45;;;13.40;98.60;;;;;;5016801;28;20041;-86
2023/05/18 10:33:26;;;;;;;7.88;2.60;;;13.40;98.70;;;;;;5015916;28;20045;-87
2023/05/18 10:35:52;;;;;;;7.05;2.83;;;13.40;98.90;;;;;;5029813;28;20563;-83
2023/05/18 10:38:25;;;;;;;5.43;1.90;;;13.40;98.80;;;;;;4998897;28;20030;-86
2023/05/18 10:40:53;;;;;;;6.38;2.17;;;13.50;98.60;;;;;;5017442;28;20489;-86
2023/05/18 10:43:22;;;;;;;7.93;2.28;;;13.40;98.50;;;;;;5037815;28;20044;-87
2023/05/18 10:45:53;;;;;;;6.82;2.00;;;13.50;98.40;;;;;;5044861;28;20044;-87
2023/05/18 10:48:19;;;;;;;10.10;2.22;;;13.50;97.80;;;;;;5003160;28;20053;-86
2023/05/18 10:50:48;;;;;;;8.55;2.38;;;13.50;97.60;;;;;;5001208;28;20343;-85
2023/05/18 10:53:16;;;;;;;6.70;2.42;;;13.40;97.70;;;;;;5014838;28;20038;-87
2023/05/18 10:55:42;;;;;;;6.10;1.90;;;13.40;98.00;;;;;;5013696;28;20044;-88
2023/05/18 10:58:13;;;;;;;10.27;2.33;;;13.50;97.90;;;;;;4983131;28;20041;-88
2023/05/18 11:00:41;;;;;;;6.60;2.33;;;13.50;98.00;;;;;;5003224;28;20064;-88
2023/05/18 11:03:12;;;;;;;11.93;2.45;;;13.60;97.90;;;;;;5001632;28;20120;-87
2023/05/18 11:05:39;;;;;;;7.38;1.90;;;13.60;97.70;;;;;;5031395;28;20043;-88
2023/05/18 11:08:05;;;;;;;8.10;2.22;;;13.70;97.60;;;;;;5003355;28;20394;-86
2023/05/18 11:10:45;;;;;;;6.35;2.53;;;13.70;97.70;;;;;;4982394;28;20397;-84
2023/05/18 11:13:13;;;;;;;6.80;1.98;;;13.70;97.60;;;;;;5034106;28;20029;-85
2023/05/18 11:15:55;;;;;;;5.88;2.17;;;13.80;97.60;;;;;;5017360;28;20033;-85
2023/05/18 11:18:45;;;;;;;13.77;2.50;;;13.80;97.90;;;;;;5007430;28;20060;-86
2023/05/18 11:21:23;;;;;;;9.57;2.53;;;13.90;97.40;;;;;;5027111;28;20103;-85
2023/05/18 11:24:17;;;;;;;8.43;2.17;;;13.90;97.00;;;;;;5015936;28;20045;-86
2023/05/18 11:27:02;;;;;;;8.60;2.50;;;14.00;97.40;;;;;;5033854;28;20056;-85
2023/05/18 11:29:39;;;;;;;5.43;2.00;;;14.00;97.30;;;;;;5007593;28;20053;-85
2023/05/18 11:32:25;;;;;;;8.88;2.45;;;14.10;97.20;;;;;;5029669;28;20500;-85
2023/05/18 11:34:54;;;;;;;9.02;2.35;;;14.20;96.70;;;;;;5008917;28;20092;-85
2023/05/18 11:37:38;;;;;;;8.27;2.83;;;14.30;96.80;;;;;;5026232;28;20034;-85
2023/05/18 11:40:08;;;;;;;6.28;2.17;;;14.40;96.80;;;;;;5002788;28;20072;-86
2023/05/18 11:42:34;;;;;;;6.65;2.22;;;14.50;97.20;;;;;;5032790;28;20576;-86
2023/05/18 11:45:10;;;;;;;4.90;2.00;;;14.60;97.40;;;;;;5013156;28;20040;-86
2023/05/18 11:47:39;;;;;;;8.30;2.05;;;14.70;97.10;;;;;;5015841;28;20033;-86
2023/05/18 11:50:10;;;;;;;5.35;2.30;;;14.60;96.80;;;;;;4998902;28;20047;-86
2023/05/18 11:52:50;;;;;;;7.07;2.30;;;14.60;96.50;;;;;;5014258;28;20037;-86
2023/05/18 11:55:18;;;;;;;5.97;2.40;;;14.60;96.50;;;;;;5014406;28;20037;-88
2023/05/18 11:57:51;;;;;;;7.63;2.35;;;14.60;97.00;;;;;;5034618;28;20036;-84
2023/05/18 12:00:18;;;;;;;8.00;2.47;;;14.70;96.50;;;;;;5029397;28;20049;-85
2023/05/18 12:02:45;;;;;;;12.60;2.80;;;14.80;96.40;;;;;;5010012;28;20099;-86
2023/05/18 12:05:12;;;;;;;8.00;2.28;;;14.90;96.10;;;;;;4999988;28;20095;-85
2023/05/18 12:07:39;;;;;;;8.95;2.70;;;15.00;96.10;;;;;;5007679;28;20033;-85
2023/05/18 12:10:11;;;;;;;8.18;3.00;;;15.10;96.10;;;;;;5008361;28;20512;-84
2023/05/18 12:12:38;;;;;;;9.38;2.20;;;15.20;95.40;;;;;;5011139;28;20036;-87
2023/05/18 12:15:06;;;;;;;8.65;2.50;;;15.20;94.90;;;;;;5018198;28;20112;-84
2023/05/18 12:17:43;;;;;;;8.00;2.40;;;15.20;95.00;;;;;;5009390;28;20033;-86
2023/05/18 12:20:11;;;;;;;8.80;2.83;;;15.30;95.00;;;;;;5013963;28;20040;-86
2023/05/18 12:22:42;;;;;;;9.23;2.65;;;15.40;94.80;;;;;;4996049;28;20140;-86
2023/05/18 12:25:08;;;;;;;8.55;2.63;;;15.50;94.60;;;;;;4998122;28;20493;-86
2023/05/18 12:27:42;;;;;;;6.15;2.75;;;15.50;94.30;;;;;;5013055;28;20405;-84
2023/05/18 12:30:22;;;;;;;9.23;2.47;;;15.50;94.20;;;;;;5031994;28;20554;-86
2023/05/18 12:32:54;;;;;;;4.35;2.05;;;15.60;94.70;;;;;;5008183;28;20082;-86
2023/05/18 12:35:24;;;;;;;5.72;2.20;;;15.80;94.80;;;;;;5011778;28;20033;-86
2023/05/18 12:37:50;;;;;;;6.35;2.20;;;16.10;93.60;;;;;;5014505;28;20393;-85
2023/05/18 12:40:18;;;;;;;8.15;2.42;;;16.30;93.20;;;;;;5010639;28;20049;-86
2023/05/18 12:42:55;;;;;;;7.03;2.13;;;16.50;93.00;;;;;;4999153;28;20041;-86
2023/05/18 12:45:24;;;;;;;6.35;2.30;;;16.80;92.50;;;;;;5032048;28;20045;-87
2023/05/18 12:47:53;;;;;;;8.88;3.03;;;17.00;93.00;;;;;;5031294;28;20044;-86
2023/05/18 12:50:19;;;;;;;6.07;2.17;;;17.30;91.90;;;;;;5000329;28;20071;-86
2023/05/18 12:52:46;;;;;;;8.55;2.47;;;17.50;90.90;;;;;;4996435;28;20044;-87
2023/05/18 12:55:20;;;;;;;6.15;2.80;;;17.70;91.10;;;;;;5002597;28;20080;-86